createdAt,value
2019-05-23T00:01:29.645Z,98737.48
2019-05-23T00:04:14.198Z,98733.16
2019-05-23T00:06:58.490Z,98737.33
2019-05-23T00:09:42.950Z,98747.79
2019-05-23T00:12:11.358Z,98736.78
2019-05-23T00:14:54.690Z,98737.48
2019-05-23T00:17:20.738Z,98735.58
2019-05-23T00:19:47.631Z,98732.96
2019-05-23T00:22:13.818Z,98730.77
2019-05-23T00:24:39.959Z,98731.59
2019-05-23T00:27:06.449Z,98727.58
2019-05-23T00:29:33.031Z,98725.50
2019-05-23T00:31:59.099Z,98726.45
2019-05-23T00:34:26.841Z,98720.30
2019-05-23T00:36:53.434Z,98722.25
2019-05-23T00:39:19.420Z,98720.64
2019-05-23T00:41:45.853Z,98720.25
2019-05-23T00:44:12.428Z,98728.09
2019-05-23T00:46:38.561Z,98720.25
2019-05-23T00:49:04.948Z,98722.58
2019-05-23T00:51:31.581Z,98718.09
2019-05-23T00:53:57.960Z,98719.55
2019-05-23T00:56:24.001Z,98715.13
2019-05-23T00:58:50.076Z,98717.81
2019-05-23T01:01:16.294Z,98722.20
2019-05-23T01:03:42.909Z,98717.59
2019-05-23T01:06:10.111Z,98720.77
2019-05-23T01:08:36.587Z,98723.31
2019-05-23T01:11:03.966Z,98724.17
2019-05-23T01:13:29.898Z,98730.83
2019-05-23T01:15:56.933Z,98728.21
2019-05-23T01:18:22.860Z,98729.11
2019-05-23T01:20:49.099Z,98734.38
2019-05-23T01:23:15.271Z,98731.65
2019-05-23T01:25:41.437Z,98725.37
2019-05-23T01:28:07.564Z,98726.93
2019-05-23T01:30:33.796Z,98723.71
2019-05-23T01:33:00.830Z,98723.03
2019-05-23T01:35:27.299Z,98724.23
2019-05-23T01:37:53.845Z,98722.30
2019-05-23T01:40:20.019Z,98721.94
2019-05-23T01:42:46.352Z,98723.13
2019-05-23T01:45:13.088Z,98732.53
2019-05-23T01:47:39.419Z,98725.33
2019-05-23T01:50:08.036Z,98725.00
2019-05-23T01:52:34.546Z,98727.01
2019-05-23T01:55:00.619Z,98734.02
2019-05-23T01:57:26.564Z,98731.39
2019-05-23T02:00:08.310Z,98723.75
2019-05-23T02:02:20.589Z,98724.47
2019-05-23T02:04:46.671Z,98722.66
2019-05-23T02:07:12.892Z,98727.34
2019-05-23T02:09:39.327Z,98723.14
2019-05-23T02:12:07.819Z,98732.48
2019-05-23T02:14:33.935Z,98729.89
2019-05-23T02:17:00.576Z,98732.16
2019-05-23T02:19:27.327Z,98725.56
2019-05-23T02:21:53.357Z,98727.63
2019-05-23T02:24:19.429Z,98735.58
2019-05-23T02:26:45.868Z,98726.88
2019-05-23T02:29:12.405Z,98731.46
2019-05-23T02:31:38.579Z,98727.90
2019-05-23T02:34:04.519Z,98729.48
2019-05-23T02:36:30.807Z,98727.47
2019-05-23T02:38:56.851Z,98722.59
2019-05-23T02:41:22.927Z,98724.66
2019-05-23T02:43:48.903Z,98718.28
2019-05-23T02:46:15.776Z,98724.05
2019-05-23T02:48:41.960Z,98721.49
2019-05-23T02:51:11.739Z,98725.84
2019-05-23T02:53:38.195Z,98737.98
2019-05-23T02:56:10.171Z,98726.59
2019-05-23T02:58:58.321Z,98731.66
2019-05-23T03:01:30.859Z,98732.02
2019-05-23T03:04:01.682Z,98723.35
2019-05-23T03:06:28.504Z,98730.91
2019-05-23T03:08:54.737Z,98728.45
2019-05-23T03:11:27.287Z,98731.61
2019-05-23T03:13:53.561Z,98735.02
2019-05-23T03:16:22.588Z,98732.21
2019-05-23T03:18:52.402Z,98731.11
2019-05-23T03:21:18.744Z,98727.27
2019-05-23T03:23:47.585Z,98728.49
2019-05-23T03:26:35.500Z,98720.74
2019-05-23T03:29:02.884Z,98721.77
2019-05-23T03:31:31.894Z,98721.37
2019-05-23T03:33:57.106Z,98723.70
2019-05-23T03:36:23.158Z,98718.80
2019-05-23T03:38:49.234Z,98719.91
2019-05-23T03:41:15.701Z,98715.72
2019-05-23T03:43:41.994Z,98712.98
2019-05-23T03:46:11.223Z,98715.86
2019-05-23T03:48:37.421Z,98719.22
2019-05-23T03:51:04.567Z,98717.91
2019-05-23T03:53:30.580Z,98718.41
2019-05-23T03:55:56.806Z,98718.52
2019-05-23T03:58:22.979Z,98717.77
2019-05-23T04:00:49.755Z,98716.33
2019-05-23T04:03:16.642Z,98709.32
2019-05-23T04:05:42.852Z,98715.41
2019-05-23T04:08:09.037Z,98715.45
2019-05-23T04:10:35.566Z,98715.17
2019-05-23T04:13:01.757Z,98710.58
2019-05-23T04:15:27.954Z,98710.53
2019-05-23T04:17:53.939Z,98671.12
2019-05-23T04:20:20.034Z,98709.66
2019-05-23T04:22:46.061Z,98709.53
2019-05-23T04:25:12.188Z,98709.05
2019-05-23T04:27:38.305Z,98717.91
2019-05-23T04:30:09.101Z,98713.11
2019-05-23T04:32:35.265Z,98712.77
2019-05-23T04:35:02.056Z,98706.52
2019-05-23T04:37:29.174Z,98710.25
2019-05-23T04:39:55.138Z,98699.86
2019-05-23T04:42:21.615Z,98697.42
2019-05-23T04:44:47.940Z,98703.33
2019-05-23T04:47:14.141Z,98702.89
2019-05-23T04:49:41.620Z,98703.94
2019-05-23T04:52:07.555Z,98699.16
2019-05-23T04:54:34.575Z,98703.22
2019-05-23T04:57:01.179Z,98699.83
2019-05-23T04:59:28.161Z,98706.22
2019-05-23T05:01:55.218Z,98707.39
2019-05-23T05:04:22.606Z,98702.48
2019-05-23T05:06:49.182Z,98713.13
2019-05-23T05:09:15.344Z,98709.94
2019-05-23T05:11:41.355Z,98703.93
2019-05-23T05:14:07.479Z,98705.03
2019-05-23T05:16:33.472Z,98704.84
2019-05-23T05:18:59.517Z,98706.83
2019-05-23T05:21:26.057Z,98713.87
2019-05-23T05:23:52.325Z,98716.25
2019-05-23T05:26:21.320Z,98713.60
2019-05-23T05:28:47.348Z,98712.14
2019-05-23T05:31:13.369Z,98713.91
2019-05-23T05:33:39.568Z,98715.75
2019-05-23T05:36:05.745Z,98712.06
2019-05-23T05:38:32.139Z,98712.23
2019-05-23T05:40:58.283Z,98717.11
2019-05-23T05:43:24.976Z,98716.39
2019-05-23T05:45:51.117Z,98721.64
2019-05-23T05:48:17.419Z,98723.91
2019-05-23T05:50:43.729Z,98727.19
2019-05-23T05:53:10.080Z,98725.50
2019-05-23T05:55:36.217Z,98724.27
2019-05-23T05:58:02.495Z,98637.67
2019-05-23T06:00:28.929Z,98721.20
2019-05-23T06:03:04.211Z,98728.18
2019-05-23T06:05:23.513Z,98731.22
2019-05-23T06:07:49.508Z,98733.66
2019-05-23T06:10:16.045Z,98733.27
2019-05-23T06:12:42.227Z,98737.88
2019-05-23T06:15:09.570Z,98740.87
2019-05-23T06:17:35.738Z,98736.47
2019-05-23T06:20:04.284Z,98738.71
2019-05-23T06:22:30.764Z,98735.61
2019-05-23T06:24:58.225Z,98740.16
2019-05-23T06:27:24.683Z,98734.70
2019-05-23T06:29:51.029Z,98736.73
2019-05-23T06:32:17.202Z,98743.50
2019-05-23T06:34:43.143Z,98747.53
2019-05-23T06:37:09.367Z,98743.70
2019-05-23T06:39:35.474Z,98744.28
2019-05-23T06:42:02.256Z,98744.45
2019-05-23T06:44:28.294Z,98733.59
2019-05-23T06:46:54.636Z,98739.44
2019-05-23T06:49:20.774Z,98737.15
2019-05-23T06:51:46.852Z,98744.63
2019-05-23T06:54:13.058Z,98744.20
2019-05-23T06:56:39.000Z,98739.78
2019-05-23T06:59:05.253Z,98747.40
2019-05-23T07:01:31.491Z,98748.84
2019-05-23T07:03:58.889Z,98745.13
2019-05-23T07:06:25.222Z,98740.98
2019-05-23T07:08:51.825Z,98740.52
2019-05-23T07:11:20.526Z,98744.58
2019-05-23T07:13:46.928Z,98740.16
2019-05-23T07:16:12.880Z,98740.84
2019-05-23T07:18:41.090Z,98744.53
2019-05-23T07:21:07.593Z,98746.09
2019-05-23T07:23:34.122Z,98745.50
2019-05-23T07:26:00.186Z,98747.17
2019-05-23T07:28:26.680Z,98743.50
2019-05-23T07:30:52.921Z,98748.84
2019-05-23T07:33:19.109Z,98751.50
2019-05-23T07:35:45.188Z,98744.07
2019-05-23T07:38:11.130Z,98742.06
2019-05-23T07:40:37.647Z,98743.58
2019-05-23T07:43:04.002Z,98738.23
2019-05-23T07:45:30.026Z,98741.44
2019-05-23T07:47:56.150Z,98740.62
2019-05-23T07:50:22.526Z,98737.84
2019-05-23T07:52:48.563Z,98745.77
2019-05-23T07:55:15.762Z,98742.55
2019-05-23T07:57:42.220Z,98737.55
2019-05-23T08:00:09.498Z,98739.12
2019-05-23T08:02:39.409Z,98740.91
2019-05-23T08:05:06.106Z,98745.34
2019-05-23T08:07:33.253Z,98741.46
2019-05-23T08:09:59.510Z,98737.59
2019-05-23T08:12:25.647Z,98742.08
2019-05-23T08:14:52.265Z,98734.45
2019-05-23T08:17:18.713Z,98735.02
2019-05-23T08:19:49.686Z,98737.42
2019-05-23T08:22:14.609Z,98726.42
2019-05-23T08:24:40.675Z,98723.70
2019-05-23T08:27:07.131Z,98728.81
2019-05-23T08:29:33.097Z,98723.48
2019-05-23T08:32:00.230Z,98727.11
2019-05-23T08:34:40.939Z,98724.82
2019-05-23T08:36:54.263Z,98723.23
2019-05-23T08:39:20.298Z,98733.73
2019-05-23T08:41:47.307Z,98726.78
2019-05-23T08:44:13.268Z,98728.48
2019-05-23T08:46:39.207Z,98728.39
2019-05-23T08:49:06.003Z,98724.45
2019-05-23T08:51:31.989Z,98720.17
2019-05-23T08:53:58.190Z,98723.88
2019-05-23T08:56:24.266Z,98721.17
2019-05-23T08:58:50.406Z,98714.77
2019-05-23T09:01:16.500Z,98716.86
2019-05-23T09:03:43.003Z,98714.37
2019-05-23T09:06:09.420Z,98716.48
2019-05-23T09:08:35.975Z,98707.53
2019-05-23T09:11:02.185Z,98699.96
2019-05-23T09:13:28.444Z,98702.25
2019-05-23T09:15:54.964Z,98705.36
2019-05-23T09:18:20.951Z,98691.98
2019-05-23T09:20:47.153Z,98701.84
2019-05-23T09:23:13.409Z,98695.84
2019-05-23T09:25:39.906Z,98693.78
2019-05-23T09:28:07.173Z,98695.63
2019-05-23T09:30:33.335Z,98693.32
2019-05-23T09:32:59.347Z,98692.23
2019-05-23T09:35:25.593Z,98699.52
2019-05-23T09:37:51.804Z,98698.66
2019-05-23T09:40:18.235Z,98699.16
2019-05-23T09:42:44.821Z,98696.78
2019-05-23T09:45:12.056Z,98690.51
2019-05-23T09:47:38.312Z,98691.55
2019-05-23T09:50:08.181Z,98694.23
2019-05-23T09:52:34.258Z,98690.14
2019-05-23T09:55:00.195Z,98689.40
2019-05-23T09:57:26.490Z,98680.38
2019-05-23T09:59:56.765Z,98677.36
2019-05-23T10:02:20.589Z,98677.43
2019-05-23T10:04:46.712Z,98680.86
2019-05-23T10:07:12.792Z,98683.73
2019-05-23T10:09:38.764Z,98680.34
2019-05-23T10:12:04.984Z,98682.34
2019-05-23T10:14:31.014Z,98675.46
2019-05-23T10:16:56.947Z,98677.67
2019-05-23T10:19:23.276Z,98675.28
2019-05-23T10:21:50.466Z,98670.26
2019-05-23T10:24:17.455Z,98665.27
2019-05-23T10:26:43.515Z,98665.98
2019-05-23T10:29:09.916Z,98670.76
2019-05-23T10:31:35.945Z,98668.08
2019-05-23T10:34:02.333Z,98661.47
2019-05-23T10:36:28.293Z,98667.45
2019-05-23T10:38:54.505Z,98662.42
2019-05-23T10:41:20.462Z,98656.78
2019-05-23T10:43:46.631Z,98657.80
2019-05-23T10:46:12.881Z,98655.51
2019-05-23T10:48:39.230Z,98653.35
2019-05-23T10:51:05.607Z,98649.56
2019-05-23T10:53:31.753Z,98645.52
2019-05-23T10:55:57.827Z,98648.92
2019-05-23T10:58:24.144Z,98641.33
2019-05-23T11:00:50.491Z,98645.23
2019-05-23T11:03:17.260Z,98638.51
2019-05-23T11:05:43.660Z,98641.38
2019-05-23T11:08:10.044Z,98630.97
2019-05-23T11:10:36.261Z,98626.07
2019-05-23T11:13:02.528Z,98630.68
2019-05-23T11:15:28.836Z,98629.92
2019-05-23T11:17:54.850Z,98627.00
2019-05-23T11:20:21.102Z,98614.80
2019-05-23T11:22:47.303Z,98620.87
2019-05-23T11:25:14.003Z,98617.05
2019-05-23T11:27:40.074Z,98613.48
2019-05-23T11:30:07.984Z,98607.16
2019-05-23T11:32:33.915Z,98609.46
2019-05-23T11:34:59.989Z,98605.86
2019-05-23T11:37:26.243Z,98613.02
2019-05-23T11:39:52.694Z,98606.19
2019-05-23T11:42:18.928Z,98598.21
2019-05-23T11:44:45.239Z,98597.74
2019-05-23T11:47:11.350Z,98596.55
2019-05-23T11:49:37.668Z,98587.91
2019-05-23T11:52:03.931Z,98584.78
2019-05-23T11:54:30.180Z,98583.40
2019-05-23T11:56:56.260Z,98583.58
2019-05-23T11:59:22.409Z,98582.83
2019-05-23T12:01:48.491Z,98585.05
2019-05-23T12:04:14.630Z,98579.03
2019-05-23T12:06:54.351Z,98571.06
2019-05-23T12:09:09.698Z,98578.53
2019-05-23T12:11:41.268Z,98569.56
2019-05-23T12:14:03.979Z,98568.30
2019-05-23T12:16:30.035Z,98574.16
2019-05-23T12:18:56.026Z,98566.78
2019-05-23T12:21:22.078Z,98564.80
2019-05-23T12:23:48.236Z,98560.78
2019-05-23T12:26:14.297Z,98560.78
2019-05-23T12:28:40.385Z,98563.31
2019-05-23T12:31:06.434Z,98566.09
2019-05-23T12:33:32.581Z,98566.38
2019-05-23T12:35:58.740Z,98561.25
2019-05-23T12:38:24.760Z,98558.53
2019-05-23T12:40:50.810Z,98563.13
2019-05-23T12:43:16.885Z,98552.80
2019-05-23T12:45:42.948Z,98552.28
2019-05-23T12:48:09.242Z,98551.90
2019-05-23T12:50:35.419Z,98559.92
2019-05-23T12:53:01.638Z,98558.52
2019-05-23T12:55:27.600Z,98554.72
2019-05-23T12:57:53.673Z,98548.00
2019-05-23T13:00:19.922Z,98552.86
2019-05-23T13:02:46.015Z,98543.63
2019-05-23T13:05:12.360Z,98543.16
2019-05-23T13:07:38.718Z,98542.78
2019-05-23T13:10:06.178Z,98539.00
2019-05-23T13:12:33.440Z,98531.81
2019-05-23T13:14:59.780Z,98537.08
2019-05-23T13:17:26.023Z,98538.06
2019-05-23T13:19:51.968Z,98536.48
2019-05-23T13:22:18.209Z,98530.17
2019-05-23T13:24:52.707Z,98524.55
2019-05-23T13:27:12.354Z,98525.47
2019-05-23T13:29:38.411Z,98517.88
2019-05-23T13:32:05.059Z,98520.34
2019-05-23T13:34:31.108Z,98519.38
2019-05-23T13:36:57.155Z,98516.25
2019-05-23T13:39:23.643Z,98508.60
2019-05-23T13:41:49.722Z,98520.76
2019-05-23T13:44:31.916Z,98515.98
2019-05-23T13:46:43.833Z,98521.73
2019-05-23T13:49:09.865Z,98519.50
2019-05-23T13:51:37.022Z,98520.33
2019-05-23T13:54:03.471Z,98519.23
2019-05-23T13:56:29.771Z,98513.31
2019-05-23T13:58:55.929Z,98512.53
2019-05-23T14:01:22.006Z,98519.59
2019-05-23T14:03:48.344Z,98515.13
2019-05-23T14:06:14.627Z,98517.80
2019-05-23T14:08:40.749Z,98515.06
2019-05-23T14:11:06.777Z,98523.03
2019-05-23T14:13:33.288Z,98520.33
2019-05-23T14:15:59.533Z,98518.77
2019-05-23T14:18:25.777Z,98513.70
2019-05-23T14:20:51.872Z,98514.30
2019-05-23T14:23:18.181Z,98509.86
2019-05-23T14:25:44.499Z,98507.58
2019-05-23T14:28:11.519Z,98509.59
2019-05-23T14:30:38.074Z,98503.28
2019-05-23T14:33:07.443Z,98508.27
2019-05-23T14:35:33.509Z,98508.06
2019-05-23T14:37:59.795Z,98508.06
2019-05-23T14:40:25.751Z,98510.38
2019-05-23T14:42:53.177Z,98506.80
2019-05-23T14:45:19.683Z,98505.15
2019-05-23T14:47:45.900Z,98507.25
2019-05-23T14:50:13.345Z,98498.07
2019-05-23T14:52:39.736Z,98495.10
2019-05-23T14:55:10.300Z,98496.35
2019-05-23T14:57:35.281Z,98486.63
2019-05-23T15:00:03.680Z,98496.20
2019-05-23T15:02:31.150Z,98492.85
2019-05-23T15:04:57.321Z,98491.71
2019-05-23T15:07:23.399Z,98481.66
2019-05-23T15:09:49.448Z,98490.25
2019-05-23T15:12:15.853Z,98483.37
2019-05-23T15:14:41.978Z,98482.28
2019-05-23T15:17:08.176Z,98491.53
2019-05-23T15:19:44.058Z,98447.55
2019-05-23T15:22:02.521Z,98473.50
2019-05-23T15:24:28.684Z,98468.67
2019-05-23T15:26:55.010Z,98475.36
2019-05-23T15:29:20.979Z,98470.95
2019-05-23T15:32:01.127Z,98467.52
2019-05-23T15:34:15.400Z,98465.12
2019-05-23T15:36:41.342Z,98458.42
2019-05-23T15:39:09.906Z,98456.30
2019-05-23T15:41:35.874Z,98456.03
2019-05-23T15:44:01.978Z,98457.02
2019-05-23T15:46:28.097Z,98449.72
2019-05-23T15:48:54.045Z,98456.06
2019-05-23T15:51:20.232Z,98448.11
2019-05-23T15:53:46.580Z,98445.16
2019-05-23T15:56:26.667Z,98449.61
2019-05-23T15:58:42.805Z,98309.76
2019-05-23T16:01:09.066Z,98443.35
2019-05-23T16:03:35.176Z,98179.55
2019-05-23T16:06:01.505Z,98442.64
2019-05-23T16:08:28.743Z,98444.42
2019-05-23T16:10:54.893Z,98439.42
2019-05-23T16:13:21.269Z,98445.76
2019-05-23T16:15:47.556Z,98438.34
2019-05-23T16:18:13.957Z,98435.53
2019-05-23T16:20:40.518Z,98434.84
2019-05-23T16:23:06.581Z,98438.73
2019-05-23T16:25:32.856Z,98436.23
2019-05-23T16:27:58.981Z,98426.47
2019-05-23T16:30:25.458Z,98425.88
2019-05-23T16:32:51.518Z,98430.02
2019-05-23T16:35:17.822Z,98424.67
2019-05-23T16:37:43.761Z,98421.38
2019-05-23T16:40:10.487Z,98418.82
2019-05-23T16:42:37.046Z,98418.13
2019-05-23T16:45:06.266Z,98414.58
2019-05-23T16:47:32.391Z,98417.92
2019-05-23T16:49:58.581Z,98414.59
2019-05-23T16:52:24.834Z,98414.59
2019-05-23T16:54:50.893Z,98410.72
2019-05-23T16:57:17.013Z,98409.31
2019-05-23T16:59:43.417Z,98408.37
2019-05-23T17:02:09.658Z,98407.31
2019-05-23T17:04:36.167Z,98406.08
2019-05-23T17:07:03.073Z,98409.43
2019-05-23T17:09:31.720Z,98415.25
2019-05-23T17:11:57.235Z,98410.32
2019-05-23T17:14:23.563Z,98412.58
2019-05-23T17:16:49.714Z,98406.91
2019-05-23T17:19:15.822Z,98405.56
2019-05-23T17:21:42.170Z,98409.23
2019-05-23T17:24:08.442Z,98407.61
2019-05-23T17:26:34.812Z,98408.05
2019-05-23T17:29:01.351Z,98417.11
2019-05-23T17:31:27.517Z,98399.17
2019-05-23T17:33:53.850Z,98407.15
2019-05-23T17:36:20.007Z,98401.20
2019-05-23T17:38:47.955Z,98406.40
2019-05-23T17:41:14.101Z,98409.77
2019-05-23T17:43:40.117Z,98409.13
2019-05-23T17:46:06.354Z,98407.64
2019-05-23T17:48:32.683Z,98403.25
2019-05-23T17:50:59.764Z,98404.45
2019-05-23T17:53:25.857Z,98414.83
2019-05-23T17:55:51.979Z,98403.80
2019-05-23T17:58:18.105Z,98373.58
2019-05-23T18:00:44.243Z,98407.30
2019-05-23T18:03:10.237Z,98400.45
2019-05-23T18:05:36.221Z,98375.23
2019-05-23T18:08:03.612Z,98408.99
2019-05-23T18:10:44.086Z,98409.06
2019-05-23T18:12:57.875Z,98404.23
2019-05-23T18:15:25.486Z,98413.42
2019-05-23T18:17:51.630Z,98417.18
2019-05-23T18:20:17.970Z,98415.87
2019-05-23T18:22:44.188Z,98417.98
2019-05-23T18:25:10.767Z,98416.94
2019-05-23T18:27:37.086Z,98420.47
2019-05-23T18:30:04.839Z,98422.03
2019-05-23T18:32:31.541Z,98421.55
2019-05-23T18:34:57.629Z,98421.84
2019-05-23T18:37:24.220Z,98424.52
2019-05-23T18:39:50.261Z,98427.08
2019-05-23T18:42:16.655Z,98425.81
2019-05-23T18:44:44.067Z,98386.86
2019-05-23T18:47:10.208Z,98420.72
2019-05-23T18:49:36.206Z,98422.88
2019-05-23T18:52:02.794Z,98429.07
2019-05-23T18:54:28.731Z,98426.31
2019-05-23T18:56:55.041Z,98421.48
2019-05-23T18:59:21.085Z,98427.41
2019-05-23T19:01:47.678Z,98420.03
2019-05-23T19:04:13.981Z,98425.20
2019-05-23T19:06:40.175Z,98426.83
2019-05-23T19:09:08.544Z,98432.00
2019-05-23T19:11:34.523Z,98433.38
2019-05-23T19:14:00.708Z,98429.02
2019-05-23T19:16:27.150Z,98430.05
2019-05-23T19:18:53.166Z,98436.68
2019-05-23T19:21:19.465Z,98438.81
2019-05-23T19:23:45.606Z,98438.74
2019-05-23T19:26:11.773Z,98437.52
2019-05-23T19:28:37.880Z,98441.59
2019-05-23T19:31:04.298Z,98437.94
2019-05-23T19:33:30.729Z,98441.91
2019-05-23T19:35:57.049Z,98441.69
2019-05-23T19:38:23.094Z,98447.17
2019-05-23T19:40:49.108Z,98435.24
2019-05-23T19:43:15.823Z,98435.24
2019-05-23T19:45:42.103Z,98428.20
2019-05-23T19:48:08.422Z,98432.58
2019-05-23T19:50:34.779Z,98431.73
2019-05-23T19:53:00.783Z,98436.11
2019-05-23T19:55:26.868Z,98429.55
2019-05-23T19:57:53.959Z,98434.02
2019-05-23T20:00:21.270Z,98428.42
2019-05-23T20:02:47.839Z,98433.70
2019-05-23T20:05:14.159Z,98435.77
2019-05-23T20:07:40.274Z,98431.05
2019-05-23T20:10:07.604Z,98433.30
2019-05-23T20:12:34.256Z,98432.95
2019-05-23T20:15:00.579Z,98432.13
2019-05-23T20:17:26.748Z,98435.88
2019-05-23T20:19:54.112Z,98430.85
2019-05-23T20:22:20.252Z,98438.05
2019-05-23T20:24:46.300Z,98437.80
2019-05-23T20:27:12.671Z,98437.87
2019-05-23T20:29:38.811Z,98439.34
2019-05-23T20:32:04.990Z,98439.69
2019-05-23T20:34:31.749Z,98441.12
2019-05-23T20:36:57.994Z,98441.19
2019-05-23T20:39:24.025Z,98439.75
2019-05-23T20:41:50.096Z,98437.66
2019-05-23T20:44:16.355Z,98440.23
2019-05-23T20:46:42.758Z,98435.83
2019-05-23T20:49:08.973Z,98441.45
2019-05-23T20:51:35.143Z,98439.17
2019-05-23T20:54:02.399Z,98441.97
2019-05-23T20:56:28.318Z,98441.97
2019-05-23T20:58:54.412Z,98436.42
2019-05-23T21:01:21.490Z,98437.30
2019-05-23T21:03:47.581Z,98436.13
2019-05-23T21:06:13.643Z,98434.42
2019-05-23T21:08:40.077Z,98449.42
2019-05-23T21:11:06.228Z,98440.23
2019-05-23T21:13:32.496Z,98432.70
2019-05-23T21:15:58.649Z,98434.39
2019-05-23T21:18:24.872Z,98435.61
2019-05-23T21:20:50.957Z,98437.49
2019-05-23T21:23:17.092Z,98439.92
2019-05-23T21:25:43.898Z,98438.55
2019-05-23T21:28:09.957Z,98447.73
2019-05-23T21:30:36.044Z,98445.39
2019-05-23T21:33:02.920Z,98448.58
2019-05-23T21:35:29.885Z,98449.16
2019-05-23T21:37:55.928Z,98451.56
2019-05-23T21:40:31.990Z,98445.53
2019-05-23T21:42:58.083Z,98444.04
2019-05-23T21:45:24.301Z,98440.75
2019-05-23T21:47:50.297Z,98446.30
2019-05-23T21:50:16.399Z,98450.27
2019-05-23T21:52:42.475Z,98444.80
2019-05-23T21:55:12.296Z,98446.44
2019-05-23T21:57:38.271Z,98445.41
2019-05-23T22:00:06.438Z,98437.76
2019-05-23T22:02:34.461Z,98437.63
2019-05-23T22:05:02.286Z,98437.76
2019-05-23T22:07:28.735Z,98433.42
2019-05-23T22:09:54.836Z,98432.22
2019-05-23T22:12:21.354Z,98430.74
2019-05-23T22:14:47.282Z,98430.80
2019-05-23T22:17:13.661Z,98428.16
2019-05-23T22:19:39.654Z,98428.27
2019-05-23T22:22:05.910Z,98426.93
2019-05-23T22:24:33.125Z,98418.14
2019-05-23T22:26:59.092Z,98416.83
2019-05-23T22:29:25.025Z,98416.11
2019-05-23T22:31:51.677Z,98421.52
2019-05-23T22:34:17.861Z,98416.73
2019-05-23T22:36:43.992Z,98414.04
2019-05-23T22:39:10.080Z,98414.41
2019-05-23T22:41:36.357Z,98413.05
2019-05-23T22:44:02.839Z,98416.13
2019-05-23T22:46:28.917Z,98420.80
2019-05-23T22:48:54.946Z,98423.63
2019-05-23T22:51:20.928Z,98426.53
2019-05-23T22:53:46.986Z,98421.68
2019-05-23T22:56:13.046Z,98424.34
2019-05-23T22:58:38.990Z,98417.76
2019-05-23T23:01:04.984Z,98425.98
2019-05-23T23:03:31.196Z,98423.05
2019-05-23T23:05:57.404Z,98425.22
2019-05-23T23:08:23.907Z,98425.88
2019-05-23T23:10:50.227Z,98429.94
2019-05-23T23:13:16.210Z,98418.94
2019-05-23T23:15:42.363Z,98425.88
2019-05-23T23:18:08.435Z,98419.30
2019-05-23T23:20:34.604Z,98421.48
2019-05-23T23:23:00.517Z,98420.53
2019-05-23T23:25:26.589Z,98417.31
2019-05-23T23:27:52.614Z,98417.65
2019-05-23T23:30:18.851Z,98418.66
2019-05-23T23:32:45.094Z,98416.36
2019-05-23T23:35:11.427Z,98414.63
2019-05-23T23:37:37.469Z,98415.02
2019-05-23T23:40:05.298Z,98413.73
2019-05-23T23:42:31.454Z,98425.56
2019-05-23T23:44:57.530Z,98416.46
2019-05-23T23:47:23.793Z,98423.44
2019-05-23T23:49:50.344Z,98413.78
2019-05-23T23:52:16.364Z,98415.33
2019-05-23T23:54:42.549Z,98414.70
2019-05-23T23:57:08.749Z,98423.09
2019-05-23T23:59:34.774Z,98423.30
